sensor_id;sensor_type;location;lat;lon;timestamp;temperature;humidity
43987;DHT22;29650;47.378;8.300;2022-07-10T00:00:47;19.40;85.80
43987;DHT22;29650;47.378;8.300;2022-07-10T00:03:13;19.30;86.20
43987;DHT22;29650;47.378;8.300;2022-07-10T00:05:40;19.20;87.00
43987;DHT22;29650;47.378;8.300;2022-07-10T00:08:09;19.20;86.80
43987;DHT22;29650;47.378;8.300;2022-07-10T00:10:36;19.30;87.00
43987;DHT22;29650;47.378;8.300;2022-07-10T00:13:03;19.30;87.00
43987;DHT22;29650;47.378;8.300;2022-07-10T00:15:29;19.30;86.70
43987;DHT22;29650;47.378;8.300;2022-07-10T00:17:57;19.20;87.00
43987;DHT22;29650;47.378;8.300;2022-07-10T00:20:24;19.10;87.70
43987;DHT22;29650;47.378;8.300;2022-07-10T00:22:51;19.10;87.80
43987;DHT22;29650;47.378;8.300;2022-07-10T00:25:20;19.10;88.10
43987;DHT22;29650;47.378;8.300;2022-07-10T00:27:46;19.10;88.90
43987;DHT22;29650;47.378;8.300;2022-07-10T00:30:13;18.90;88.90
43987;DHT22;29650;47.378;8.300;2022-07-10T00:32:40;18.80;90.20
43987;DHT22;29650;47.378;8.300;2022-07-10T00:35:08;18.70;90.40
43987;DHT22;29650;47.378;8.300;2022-07-10T00:37:35;18.80;90.30
43987;DHT22;29650;47.378;8.300;2022-07-10T00:40:04;18.70;90.00
43987;DHT22;29650;47.378;8.300;2022-07-10T00:42:32;18.80;89.30
43987;DHT22;29650;47.378;8.300;2022-07-10T00:45:00;18.80;89.30
43987;DHT22;29650;47.378;8.300;2022-07-10T00:47:27;18.80;89.80
43987;DHT22;29650;47.378;8.300;2022-07-10T00:49:54;18.80;90.00
43987;DHT22;29650;47.378;8.300;2022-07-10T00:52:21;18.80;90.20
43987;DHT22;29650;47.378;8.300;2022-07-10T00:54:49;18.80;90.30
43987;DHT22;29650;47.378;8.300;2022-07-10T00:57:17;18.70;90.60
43987;DHT22;29650;47.378;8.300;2022-07-10T00:59:47;18.60;90.90
43987;DHT22;29650;47.378;8.300;2022-07-10T01:02:15;18.50;91.20
43987;DHT22;29650;47.378;8.300;2022-07-10T01:04:43;18.50;91.60
43987;DHT22;29650;47.378;8.300;2022-07-10T01:07:10;18.50;91.80
43987;DHT22;29650;47.378;8.300;2022-07-10T01:09:37;18.40;92.10
43987;DHT22;29650;47.378;8.300;2022-07-10T01:12:05;18.30;92.00
43987;DHT22;29650;47.378;8.300;2022-07-10T01:14:32;18.30;92.20
43987;DHT22;29650;47.378;8.300;2022-07-10T01:17:04;18.50;92.30
43987;DHT22;29650;47.378;8.300;2022-07-10T01:19:31;18.40;92.40
43987;DHT22;29650;47.378;8.300;2022-07-10T01:21:59;18.50;92.30
43987;DHT22;29650;47.378;8.300;2022-07-10T01:24:27;18.40;92.40
43987;DHT22;29650;47.378;8.300;2022-07-10T01:26:54;18.30;92.70
43987;DHT22;29650;47.378;8.300;2022-07-10T01:29:22;18.30;93.10
43987;DHT22;29650;47.378;8.300;2022-07-10T01:31:49;18.30;93.20
43987;DHT22;29650;47.378;8.300;2022-07-10T01:34:16;18.40;93.00
43987;DHT22;29650;47.378;8.300;2022-07-10T01:36:44;18.40;93.20
43987;DHT22;29650;47.378;8.300;2022-07-10T01:39:12;18.40;93.20
43987;DHT22;29650;47.378;8.300;2022-07-10T01:41:39;18.40;92.90
43987;DHT22;29650;47.378;8.300;2022-07-10T01:44:06;18.50;92.70
43987;DHT22;29650;47.378;8.300;2022-07-10T01:46:33;18.40;93.00
43987;DHT22;29650;47.378;8.300;2022-07-10T01:49:00;18.40;92.90
43987;DHT22;29650;47.378;8.300;2022-07-10T01:51:27;18.40;92.90
43987;DHT22;29650;47.378;8.300;2022-07-10T01:53:54;18.30;93.00
43987;DHT22;29650;47.378;8.300;2022-07-10T01:56:22;18.30;93.60
43987;DHT22;29650;47.378;8.300;2022-07-10T01:58:49;18.30;93.80
43987;DHT22;29650;47.378;8.300;2022-07-10T02:01:16;18.20;94.00
43987;DHT22;29650;47.378;8.300;2022-07-10T02:03:43;17.70;94.40
43987;DHT22;29650;47.378;8.300;2022-07-10T02:06:27;18.40;95.10
43987;DHT22;29650;47.378;8.300;2022-07-10T02:08:54;18.00;97.40
43987;DHT22;29650;47.378;8.300;2022-07-10T02:11:23;17.90;99.70
43987;DHT22;29650;47.378;8.300;2022-07-10T02:13:50;17.90;99.90
43987;DHT22;29650;47.378;8.300;2022-07-10T02:16:17;18.00;99.90
43987;DHT22;29650;47.378;8.300;2022-07-10T02:18:44;17.90;99.90
43987;DHT22;29650;47.378;8.300;2022-07-10T02:21:11;17.90;99.90
43987;DHT22;29650;47.378;8.300;2022-07-10T02:23:38;18.00;99.00
43987;DHT22;29650;47.378;8.300;2022-07-10T02:26:06;18.10;98.20
43987;DHT22;29650;47.378;8.300;2022-07-10T02:28:34;18.10;97.20
43987;DHT22;29650;47.378;8.300;2022-07-10T02:31:01;18.00;97.10
43987;DHT22;29650;47.378;8.300;2022-07-10T02:33:28;17.70;97.20
43987;DHT22;29650;47.378;8.300;2022-07-10T02:35:55;18.00;97.40
43987;DHT22;29650;47.378;8.300;2022-07-10T02:38:22;18.00;96.90
43987;DHT22;29650;47.378;8.300;2022-07-10T02:40:49;18.00;96.60
43987;DHT22;29650;47.378;8.300;2022-07-10T02:43:16;17.90;96.70
43987;DHT22;29650;47.378;8.300;2022-07-10T02:45:44;17.70;97.50
43987;DHT22;29650;47.378;8.300;2022-07-10T02:48:11;17.70;98.00
43987;DHT22;29650;47.378;8.300;2022-07-10T02:50:38;17.60;98.70
43987;DHT22;29650;47.378;8.300;2022-07-10T02:53:05;17.60;98.00
43987;DHT22;29650;47.378;8.300;2022-07-10T02:55:32;17.30;99.80
43987;DHT22;29650;47.378;8.300;2022-07-10T02:57:59;17.20;99.90
43987;DHT22;29650;47.378;8.300;2022-07-10T03:00:26;17.30;99.90
43987;DHT22;29650;47.378;8.300;2022-07-10T03:02:55;17.10;99.90
43987;DHT22;29650;47.378;8.300;2022-07-10T03:05:23;17.00;99.90
43987;DHT22;29650;47.378;8.300;2022-07-10T03:07:50;17.20;99.90
43987;DHT22;29650;47.378;8.300;2022-07-10T03:10:17;17.10;99.90
43987;DHT22;29650;47.378;8.300;2022-07-10T03:12:44;17.10;99.90
43987;DHT22;29650;47.378;8.300;2022-07-10T03:15:11;17.20;99.90
43987;DHT22;29650;47.378;8.300;2022-07-10T03:17:38;17.30;99.90
43987;DHT22;29650;47.378;8.300;2022-07-10T03:20:08;17.50;99.90
43987;DHT22;29650;47.378;8.300;2022-07-10T03:22:35;17.50;99.90
43987;DHT22;29650;47.378;8.300;2022-07-10T03:25:02;17.50;99.90
43987;DHT22;29650;47.378;8.300;2022-07-10T03:27:29;17.40;99.90
43987;DHT22;29650;47.378;8.300;2022-07-10T03:29:56;17.50;99.90
43987;DHT22;29650;47.378;8.300;2022-07-10T03:32:23;17.50;99.90
43987;DHT22;29650;47.378;8.300;2022-07-10T03:34:50;17.50;99.90
43987;DHT22;29650;47.378;8.300;2022-07-10T03:37:18;17.50;99.90
43987;DHT22;29650;47.378;8.300;2022-07-10T03:39:45;17.50;99.90
43987;DHT22;29650;47.378;8.300;2022-07-10T03:42:12;17.60;99.90
43987;DHT22;29650;47.378;8.300;2022-07-10T03:44:39;17.60;99.90
43987;DHT22;29650;47.378;8.300;2022-07-10T03:47:06;17.70;99.90
43987;DHT22;29650;47.378;8.300;2022-07-10T03:49:33;17.60;99.90
43987;DHT22;29650;47.378;8.300;2022-07-10T03:52:00;17.70;99.90
43987;DHT22;29650;47.378;8.300;2022-07-10T03:54:29;17.60;99.90
43987;DHT22;29650;47.378;8.300;2022-07-10T03:56:56;17.60;99.90
43987;DHT22;29650;47.378;8.300;2022-07-10T03:59:41;17.50;99.90
43987;DHT22;29650;47.378;8.300;2022-07-10T04:02:08;17.30;99.90
43987;DHT22;29650;47.378;8.300;2022-07-10T04:04:35;17.30;99.90
43987;DHT22;29650;47.378;8.300;2022-07-10T04:07:02;17.30;99.90
43987;DHT22;29650;47.378;8.300;2022-07-10T04:09:32;17.40;99.90
43987;DHT22;29650;47.378;8.300;2022-07-10T04:11:59;17.40;99.90
43987;DHT22;29650;47.378;8.300;2022-07-10T04:14:26;17.40;99.90
43987;DHT22;29650;47.378;8.300;2022-07-10T04:16:53;17.40;99.90
43987;DHT22;29650;47.378;8.300;2022-07-10T04:19:20;17.40;99.90
43987;DHT22;29650;47.378;8.300;2022-07-10T04:21:48;17.30;99.90
43987;DHT22;29650;47.378;8.300;2022-07-10T04:24:15;17.20;99.90
43987;DHT22;29650;47.378;8.300;2022-07-10T04:26:44;17.40;99.90
43987;DHT22;29650;47.378;8.300;2022-07-10T04:29:11;17.40;99.90
43987;DHT22;29650;47.378;8.300;2022-07-10T04:31:38;17.40;99.90
43987;DHT22;29650;47.378;8.300;2022-07-10T04:34:05;17.50;99.90
43987;DHT22;29650;47.378;8.300;2022-07-10T04:36:32;17.60;99.90
43987;DHT22;29650;47.378;8.300;2022-07-10T04:38:59;17.60;99.90
43987;DHT22;29650;47.378;8.300;2022-07-10T04:41:26;17.70;99.90
43987;DHT22;29650;47.378;8.300;2022-07-10T04:43:54;17.70;99.90
43987;DHT22;29650;47.378;8.300;2022-07-10T04:46:21;17.70;99.90
43987;DHT22;29650;47.378;8.300;2022-07-10T04:48:48;17.70;99.90
43987;DHT22;29650;47.378;8.300;2022-07-10T04:51:16;17.90;99.90
43987;DHT22;29650;47.378;8.300;2022-07-10T04:53:44;17.80;99.90
43987;DHT22;29650;47.378;8.300;2022-07-10T04:56:11;18.00;99.90
43987;DHT22;29650;47.378;8.300;2022-07-10T04:58:38;17.90;99.90
43987;DHT22;29650;47.378;8.300;2022-07-10T05:01:06;17.90;99.90
43987;DHT22;29650;47.378;8.300;2022-07-10T05:03:33;18.00;99.90
43987;DHT22;29650;47.378;8.300;2022-07-10T05:06:00;18.00;99.90
43987;DHT22;29650;47.378;8.300;2022-07-10T05:08:27;18.00;99.90
43987;DHT22;29650;47.378;8.300;2022-07-10T05:10:54;18.10;99.90
43987;DHT22;29650;47.378;8.300;2022-07-10T05:13:21;18.10;99.90
43987;DHT22;29650;47.378;8.300;2022-07-10T05:15:48;18.30;99.90
43987;DHT22;29650;47.378;8.300;2022-07-10T05:18:16;18.50;99.90
43987;DHT22;29650;47.378;8.300;2022-07-10T05:20:43;18.50;99.90
43987;DHT22;29650;47.378;8.300;2022-07-10T05:23:13;18.70;99.90
43987;DHT22;29650;47.378;8.300;2022-07-10T05:25:40;18.80;99.90
43987;DHT22;29650;47.378;8.300;2022-07-10T05:28:07;18.70;99.90
43987;DHT22;29650;47.378;8.300;2022-07-10T05:30:34;18.70;99.90
43987;DHT22;29650;47.378;8.300;2022-07-10T05:33:01;19.00;99.90
43987;DHT22;29650;47.378;8.300;2022-07-10T05:35:29;19.20;98.30
43987;DHT22;29650;47.378;8.300;2022-07-10T05:37:56;19.20;97.70
43987;DHT22;29650;47.378;8.300;2022-07-10T05:40:23;19.30;97.10
43987;DHT22;29650;47.378;8.300;2022-07-10T05:42:51;19.30;96.90
43987;DHT22;29650;47.378;8.300;2022-07-10T05:45:18;19.10;96.40
43987;DHT22;29650;47.378;8.300;2022-07-10T05:47:45;18.90;96.40
43987;DHT22;29650;47.378;8.300;2022-07-10T05:50:12;19.20;96.70
43987;DHT22;29650;47.378;8.300;2022-07-10T05:52:40;19.00;95.70
43987;DHT22;29650;47.378;8.300;2022-07-10T05:55:08;19.00;95.60
43987;DHT22;29650;47.378;8.300;2022-07-10T05:57:35;19.00;96.10
43987;DHT22;29650;47.378;8.300;2022-07-10T06:00:04;19.20;97.20
43987;DHT22;29650;47.378;8.300;2022-07-10T06:02:31;18.70;96.40
43987;DHT22;29650;47.378;8.300;2022-07-10T06:04:58;19.00;96.90
43987;DHT22;29650;47.378;8.300;2022-07-10T06:07:26;19.00;96.80
43987;DHT22;29650;47.378;8.300;2022-07-10T06:09:54;18.90;96.40
43987;DHT22;29650;47.378;8.300;2022-07-10T06:12:21;18.80;97.00
43987;DHT22;29650;47.378;8.300;2022-07-10T06:14:48;19.00;96.20
43987;DHT22;29650;47.378;8.300;2022-07-10T06:17:15;19.30;96.10
43987;DHT22;29650;47.378;8.300;2022-07-10T06:19:42;18.80;96.80
43987;DHT22;29650;47.378;8.300;2022-07-10T06:22:09;18.50;96.60
43987;DHT22;29650;47.378;8.300;2022-07-10T06:24:55;18.90;96.70
43987;DHT22;29650;47.378;8.300;2022-07-10T06:27:21;19.20;96.00
43987;DHT22;29650;47.378;8.300;2022-07-10T06:29:48;19.50;96.20
43987;DHT22;29650;47.378;8.300;2022-07-10T06:32:15;19.60;94.90
43987;DHT22;29650;47.378;8.300;2022-07-10T06:34:42;19.40;95.10
43987;DHT22;29650;47.378;8.300;2022-07-10T06:37:09;19.40;94.60
43987;DHT22;29650;47.378;8.300;2022-07-10T06:39:36;19.40;94.70
43987;DHT22;29650;47.378;8.300;2022-07-10T06:42:06;19.20;94.90
43987;DHT22;29650;47.378;8.300;2022-07-10T06:44:32;19.40;95.00
43987;DHT22;29650;47.378;8.300;2022-07-10T06:47:00;19.50;94.50
43987;DHT22;29650;47.378;8.300;2022-07-10T06:49:45;19.50;94.70
43987;DHT22;29650;47.378;8.300;2022-07-10T06:52:12;19.50;94.10
43987;DHT22;29650;47.378;8.300;2022-07-10T06:54:39;19.20;94.70
43987;DHT22;29650;47.378;8.300;2022-07-10T06:57:08;18.90;95.00
43987;DHT22;29650;47.378;8.300;2022-07-10T06:59:35;18.90;95.40
43987;DHT22;29650;47.378;8.300;2022-07-10T07:02:02;19.10;95.70
43987;DHT22;29650;47.378;8.300;2022-07-10T07:04:29;19.30;95.30
43987;DHT22;29650;47.378;8.300;2022-07-10T07:06:56;19.20;95.70
43987;DHT22;29650;47.378;8.300;2022-07-10T07:09:23;20.00;94.20
43987;DHT22;29650;47.378;8.300;2022-07-10T07:11:49;20.30;93.50
43987;DHT22;29650;47.378;8.300;2022-07-10T07:14:18;20.60;92.30
43987;DHT22;29650;47.378;8.300;2022-07-10T07:16:45;20.70;91.30
43987;DHT22;29650;47.378;8.300;2022-07-10T07:19:22;21.00;91.70
43987;DHT22;29650;47.378;8.300;2022-07-10T07:21:56;21.10;89.30
43987;DHT22;29650;47.378;8.300;2022-07-10T07:24:40;21.40;87.00
43987;DHT22;29650;47.378;8.300;2022-07-10T07:27:07;21.20;88.10
43987;DHT22;29650;47.378;8.300;2022-07-10T07:29:35;21.00;88.80
43987;DHT22;29650;47.378;8.300;2022-07-10T07:32:03;21.10;89.10
43987;DHT22;29650;47.378;8.300;2022-07-10T07:34:30;20.90;88.50
43987;DHT22;29650;47.378;8.300;2022-07-10T07:36:57;21.00;88.80
43987;DHT22;29650;47.378;8.300;2022-07-10T07:39:24;21.00;87.70
43987;DHT22;29650;47.378;8.300;2022-07-10T07:41:51;21.00;87.90
43987;DHT22;29650;47.378;8.300;2022-07-10T07:44:18;21.50;87.40
43987;DHT22;29650;47.378;8.300;2022-07-10T07:46:46;21.60;85.70
43987;DHT22;29650;47.378;8.300;2022-07-10T07:49:13;21.30;85.40
43987;DHT22;29650;47.378;8.300;2022-07-10T07:51:40;21.60;84.80
43987;DHT22;29650;47.378;8.300;2022-07-10T07:54:07;21.80;84.50
43987;DHT22;29650;47.378;8.300;2022-07-10T07:56:34;22.00;83.90
43987;DHT22;29650;47.378;8.300;2022-07-10T07:59:00;22.00;83.60
43987;DHT22;29650;47.378;8.300;2022-07-10T08:01:27;22.00;81.70
43987;DHT22;29650;47.378;8.300;2022-07-10T08:03:56;21.90;82.00
43987;DHT22;29650;47.378;8.300;2022-07-10T08:06:22;22.20;80.80
43987;DHT22;29650;47.378;8.300;2022-07-10T08:08:49;22.20;78.60
43987;DHT22;29650;47.378;8.300;2022-07-10T08:11:16;22.20;83.10
43987;DHT22;29650;47.378;8.300;2022-07-10T08:13:43;22.30;81.40
43987;DHT22;29650;47.378;8.300;2022-07-10T08:16:10;22.50;80.00
43987;DHT22;29650;47.378;8.300;2022-07-10T08:18:37;21.90;79.10
43987;DHT22;29650;47.378;8.300;2022-07-10T08:21:05;21.70;80.80
43987;DHT22;29650;47.378;8.300;2022-07-10T08:23:32;22.30;81.60
43987;DHT22;29650;47.378;8.300;2022-07-10T08:25:59;22.50;80.50
43987;DHT22;29650;47.378;8.300;2022-07-10T08:28:26;22.40;79.20
43987;DHT22;29650;47.378;8.300;2022-07-10T08:30:53;22.50;78.70
43987;DHT22;29650;47.378;8.300;2022-07-10T08:33:20;22.50;77.70
43987;DHT22;29650;47.378;8.300;2022-07-10T08:35:47;22.70;77.50
43987;DHT22;29650;47.378;8.300;2022-07-10T08:38:15;22.50;77.50
43987;DHT22;29650;47.378;8.300;2022-07-10T08:40:43;22.60;78.50
43987;DHT22;29650;47.378;8.300;2022-07-10T08:43:09;22.90;77.90
43987;DHT22;29650;47.378;8.300;2022-07-10T08:45:37;22.80;76.80
43987;DHT22;29650;47.378;8.300;2022-07-10T08:48:07;22.80;76.90
43987;DHT22;29650;47.378;8.300;2022-07-10T08:50:37;22.90;76.30
43987;DHT22;29650;47.378;8.300;2022-07-10T08:53:08;23.20;77.50
43987;DHT22;29650;47.378;8.300;2022-07-10T08:55:37;23.00;77.60
43987;DHT22;29650;47.378;8.300;2022-07-10T08:58:04;23.20;77.40
43987;DHT22;29650;47.378;8.300;2022-07-10T09:00:33;22.80;75.20
43987;DHT22;29650;47.378;8.300;2022-07-10T09:03:00;22.50;76.80
43987;DHT22;29650;47.378;8.300;2022-07-10T09:05:27;22.40;78.20
43987;DHT22;29650;47.378;8.300;2022-07-10T09:07:55;22.40;78.10
43987;DHT22;29650;47.378;8.300;2022-07-10T09:10:24;22.50;79.30
43987;DHT22;29650;47.378;8.300;2022-07-10T09:12:53;22.40;79.00
43987;DHT22;29650;47.378;8.300;2022-07-10T09:15:22;22.20;80.20
43987;DHT22;29650;47.378;8.300;2022-07-10T09:17:53;22.00;81.30
43987;DHT22;29650;47.378;8.300;2022-07-10T09:20:28;22.40;80.70
43987;DHT22;29650;47.378;8.300;2022-07-10T09:22:57;23.00;79.20
43987;DHT22;29650;47.378;8.300;2022-07-10T09:25:30;23.00;77.70
43987;DHT22;29650;47.378;8.300;2022-07-10T09:27:59;23.30;77.10
43987;DHT22;29650;47.378;8.300;2022-07-10T09:30:32;23.60;79.50
43987;DHT22;29650;47.378;8.300;2022-07-10T09:33:17;23.50;77.40
43987;DHT22;29650;47.378;8.300;2022-07-10T09:35:59;23.50;75.00
43987;DHT22;29650;47.378;8.300;2022-07-10T09:38:54;23.60;75.20
43987;DHT22;29650;47.378;8.300;2022-07-10T09:41:27;23.30;75.70
43987;DHT22;29650;47.378;8.300;2022-07-10T09:43:57;22.50;76.70
43987;DHT22;29650;47.378;8.300;2022-07-10T09:46:26;22.70;77.20
43987;DHT22;29650;47.378;8.300;2022-07-10T09:49:02;22.80;76.30
43987;DHT22;29650;47.378;8.300;2022-07-10T09:51:30;23.10;76.90
43987;DHT22;29650;47.378;8.300;2022-07-10T09:54:01;23.30;75.70
43987;DHT22;29650;47.378;8.300;2022-07-10T09:56:32;23.60;75.60
43987;DHT22;29650;47.378;8.300;2022-07-10T09:59:01;23.60;72.60
43987;DHT22;29650;47.378;8.300;2022-07-10T10:01:31;23.20;74.60
43987;DHT22;29650;47.378;8.300;2022-07-10T10:03:58;23.30;74.70
43987;DHT22;29650;47.378;8.300;2022-07-10T10:06:30;23.50;74.30
43987;DHT22;29650;47.378;8.300;2022-07-10T10:09:02;24.00;73.50
43987;DHT22;29650;47.378;8.300;2022-07-10T10:11:32;24.10;72.50
43987;DHT22;29650;47.378;8.300;2022-07-10T10:14:03;24.00;71.90
43987;DHT22;29650;47.378;8.300;2022-07-10T10:16:30;23.90;72.90
43987;DHT22;29650;47.378;8.300;2022-07-10T10:18:57;23.60;71.60
43987;DHT22;29650;47.378;8.300;2022-07-10T10:21:43;24.00;72.40
43987;DHT22;29650;47.378;8.300;2022-07-10T10:24:11;23.80;72.90
43987;DHT22;29650;47.378;8.300;2022-07-10T10:26:40;24.70;71.90
43987;DHT22;29650;47.378;8.300;2022-07-10T10:29:09;24.70;71.30
43987;DHT22;29650;47.378;8.300;2022-07-10T10:31:36;24.10;70.50
43987;DHT22;29650;47.378;8.300;2022-07-10T10:34:05;24.40;71.00
43987;DHT22;29650;47.378;8.300;2022-07-10T10:36:45;24.60;70.50
43987;DHT22;29650;47.378;8.300;2022-07-10T10:39:15;24.60;68.80
43987;DHT22;29650;47.378;8.300;2022-07-10T10:41:47;24.50;70.00
43987;DHT22;29650;47.378;8.300;2022-07-10T10:44:23;24.70;67.80
43987;DHT22;29650;47.378;8.300;2022-07-10T10:47:00;24.40;68.50
43987;DHT22;29650;47.378;8.300;2022-07-10T10:49:54;24.10;69.20
43987;DHT22;29650;47.378;8.300;2022-07-10T10:52:24;23.60;69.90
43987;DHT22;29650;47.378;8.300;2022-07-10T10:55:05;23.00;72.10
43987;DHT22;29650;47.378;8.300;2022-07-10T10:57:41;23.30;72.50
43987;DHT22;29650;47.378;8.300;2022-07-10T11:00:29;23.70;70.90
43987;DHT22;29650;47.378;8.300;2022-07-10T11:03:28;24.10;69.80
43987;DHT22;29650;47.378;8.300;2022-07-10T11:05:55;24.90;68.50
43987;DHT22;29650;47.378;8.300;2022-07-10T11:08:42;25.10;66.60
43987;DHT22;29650;47.378;8.300;2022-07-10T11:11:40;25.10;65.80
43987;DHT22;29650;47.378;8.300;2022-07-10T11:14:08;24.80;66.40
43987;DHT22;29650;47.378;8.300;2022-07-10T11:16:38;25.20;67.80
43987;DHT22;29650;47.378;8.300;2022-07-10T11:19:12;25.20;65.50
43987;DHT22;29650;47.378;8.300;2022-07-10T11:21:46;25.30;65.10
43987;DHT22;29650;47.378;8.300;2022-07-10T11:24:33;25.30;64.40
43987;DHT22;29650;47.378;8.300;2022-07-10T11:27:08;25.40;65.20
43987;DHT22;29650;47.378;8.300;2022-07-10T11:29:36;25.60;63.50
43987;DHT22;29650;47.378;8.300;2022-07-10T11:32:06;25.90;63.80
43987;DHT22;29650;47.378;8.300;2022-07-10T11:34:34;25.90;63.10
43987;DHT22;29650;47.378;8.300;2022-07-10T11:37:02;25.90;62.10
43987;DHT22;29650;47.378;8.300;2022-07-10T11:39:29;25.80;62.00
43987;DHT22;29650;47.378;8.300;2022-07-10T11:41:56;26.30;62.10
43987;DHT22;29650;47.378;8.300;2022-07-10T11:44:23;26.20;61.50
43987;DHT22;29650;47.378;8.300;2022-07-10T11:46:51;25.70;61.60
43987;DHT22;29650;47.378;8.300;2022-07-10T11:49:22;25.70;62.30
43987;DHT22;29650;47.378;8.300;2022-07-10T11:51:49;25.10;62.10
43987;DHT22;29650;47.378;8.300;2022-07-10T11:54:17;25.00;62.40
43987;DHT22;29650;47.378;8.300;2022-07-10T11:56:48;24.60;62.50
43987;DHT22;29650;47.378;8.300;2022-07-10T11:59:15;24.50;63.60
43987;DHT22;29650;47.378;8.300;2022-07-10T12:01:44;24.40;64.20
43987;DHT22;29650;47.378;8.300;2022-07-10T12:04:11;24.40;64.20
43987;DHT22;29650;47.378;8.300;2022-07-10T12:06:42;25.10;63.00
43987;DHT22;29650;47.378;8.300;2022-07-10T12:09:10;25.10;61.80
43987;DHT22;29650;47.378;8.300;2022-07-10T12:11:38;25.40;60.40
43987;DHT22;29650;47.378;8.300;2022-07-10T12:14:11;25.80;61.20
43987;DHT22;29650;47.378;8.300;2022-07-10T12:16:40;25.00;61.70
43987;DHT22;29650;47.378;8.300;2022-07-10T12:19:08;24.90;63.80
43987;DHT22;29650;47.378;8.300;2022-07-10T12:21:36;25.30;62.90
43987;DHT22;29650;47.378;8.300;2022-07-10T12:24:05;25.80;61.00
43987;DHT22;29650;47.378;8.300;2022-07-10T12:26:34;25.80;61.20
43987;DHT22;29650;47.378;8.300;2022-07-10T12:29:01;26.00;60.70
43987;DHT22;29650;47.378;8.300;2022-07-10T12:31:30;26.70;60.80
43987;DHT22;29650;47.378;8.300;2022-07-10T12:33:59;26.50;57.50
43987;DHT22;29650;47.378;8.300;2022-07-10T12:36:45;26.20;56.20
43987;DHT22;29650;47.378;8.300;2022-07-10T12:39:14;26.10;56.80
43987;DHT22;29650;47.378;8.300;2022-07-10T12:41:59;25.60;55.80
43987;DHT22;29650;47.378;8.300;2022-07-10T12:44:34;26.00;55.10
43987;DHT22;29650;47.378;8.300;2022-07-10T12:47:03;25.90;55.10
43987;DHT22;29650;47.378;8.300;2022-07-10T12:49:47;25.50;56.10
43987;DHT22;29650;47.378;8.300;2022-07-10T12:52:20;25.90;56.40
43987;DHT22;29650;47.378;8.300;2022-07-10T12:54:48;25.30;56.50
43987;DHT22;29650;47.378;8.300;2022-07-10T12:57:15;25.50;55.70
43987;DHT22;29650;47.378;8.300;2022-07-10T12:59:42;25.50;55.80
43987;DHT22;29650;47.378;8.300;2022-07-10T13:02:16;25.00;56.50
43987;DHT22;29650;47.378;8.300;2022-07-10T13:04:55;25.10;57.00
43987;DHT22;29650;47.378;8.300;2022-07-10T13:07:29;25.40;58.10
43987;DHT22;29650;47.378;8.300;2022-07-10T13:09:58;25.90;56.40
43987;DHT22;29650;47.378;8.300;2022-07-10T13:12:26;26.20;55.90
43987;DHT22;29650;47.378;8.300;2022-07-10T13:14:53;26.50;55.70
43987;DHT22;29650;47.378;8.300;2022-07-10T13:17:20;26.60;55.70
43987;DHT22;29650;47.378;8.300;2022-07-10T13:19:47;26.90;55.50
43987;DHT22;29650;47.378;8.300;2022-07-10T13:22:14;27.00;56.00
43987;DHT22;29650;47.378;8.300;2022-07-10T13:24:40;26.00;55.00
43987;DHT22;29650;47.378;8.300;2022-07-10T13:27:09;26.00;56.00
43987;DHT22;29650;47.378;8.300;2022-07-10T13:29:36;25.70;57.40
43987;DHT22;29650;47.378;8.300;2022-07-10T13:32:04;25.80;57.70
43987;DHT22;29650;47.378;8.300;2022-07-10T13:34:31;26.20;58.70
43987;DHT22;29650;47.378;8.300;2022-07-10T13:36:58;26.30;57.70
43987;DHT22;29650;47.378;8.300;2022-07-10T13:39:25;26.80;56.20
43987;DHT22;29650;47.378;8.300;2022-07-10T13:41:52;26.40;57.90
43987;DHT22;29650;47.378;8.300;2022-07-10T13:44:20;25.80;59.00
43987;DHT22;29650;47.378;8.300;2022-07-10T13:46:47;25.50;59.50
43987;DHT22;29650;47.378;8.300;2022-07-10T13:49:14;25.50;59.90
43987;DHT22;29650;47.378;8.300;2022-07-10T13:51:41;25.30;59.30
43987;DHT22;29650;47.378;8.300;2022-07-10T13:54:08;25.90;58.50
43987;DHT22;29650;47.378;8.300;2022-07-10T13:56:35;26.10;58.90
43987;DHT22;29650;47.378;8.300;2022-07-10T13:59:02;25.80;58.80
43987;DHT22;29650;47.378;8.300;2022-07-10T14:01:30;26.00;58.70
43987;DHT22;29650;47.378;8.300;2022-07-10T14:03:57;26.70;56.80
43987;DHT22;29650;47.378;8.300;2022-07-10T14:06:24;27.30;56.50
43987;DHT22;29650;47.378;8.300;2022-07-10T14:08:51;27.10;55.20
43987;DHT22;29650;47.378;8.300;2022-07-10T14:11:18;26.60;55.10
43987;DHT22;29650;47.378;8.300;2022-07-10T14:13:45;26.90;54.80
43987;DHT22;29650;47.378;8.300;2022-07-10T14:16:12;27.10;54.80
43987;DHT22;29650;47.378;8.300;2022-07-10T14:18:40;27.10;54.80
43987;DHT22;29650;47.378;8.300;2022-07-10T14:21:10;27.60;54.60
43987;DHT22;29650;47.378;8.300;2022-07-10T14:23:39;27.50;54.90
43987;DHT22;29650;47.378;8.300;2022-07-10T14:26:09;27.60;55.20
43987;DHT22;29650;47.378;8.300;2022-07-10T14:28:37;26.50;54.90
43987;DHT22;29650;47.378;8.300;2022-07-10T14:31:05;26.20;55.20
43987;DHT22;29650;47.378;8.300;2022-07-10T14:33:33;26.10;56.20
43987;DHT22;29650;47.378;8.300;2022-07-10T14:36:02;26.10;56.10
43987;DHT22;29650;47.378;8.300;2022-07-10T14:38:29;26.20;56.40
43987;DHT22;29650;47.378;8.300;2022-07-10T14:40:56;26.30;56.00
43987;DHT22;29650;47.378;8.300;2022-07-10T14:43:23;26.70;55.40
43987;DHT22;29650;47.378;8.300;2022-07-10T14:45:50;27.00;55.80
43987;DHT22;29650;47.378;8.300;2022-07-10T14:48:17;27.00;55.70
43987;DHT22;29650;47.378;8.300;2022-07-10T14:50:44;27.10;55.90
43987;DHT22;29650;47.378;8.300;2022-07-10T14:53:13;27.10;54.70
43987;DHT22;29650;47.378;8.300;2022-07-10T14:55:40;27.60;54.50
43987;DHT22;29650;47.378;8.300;2022-07-10T14:58:06;27.70;54.50
43987;DHT22;29650;47.378;8.300;2022-07-10T15:00:34;27.50;54.70
43987;DHT22;29650;47.378;8.300;2022-07-10T15:03:01;27.40;54.00
43987;DHT22;29650;47.378;8.300;2022-07-10T15:05:28;27.40;53.70
43987;DHT22;29650;47.378;8.300;2022-07-10T15:07:55;27.30;53.20
43987;DHT22;29650;47.378;8.300;2022-07-10T15:10:23;27.50;53.30
43987;DHT22;29650;47.378;8.300;2022-07-10T15:12:50;27.40;53.40
43987;DHT22;29650;47.378;8.300;2022-07-10T15:15:17;27.60;53.50
43987;DHT22;29650;47.378;8.300;2022-07-10T15:17:44;27.80;53.90
43987;DHT22;29650;47.378;8.300;2022-07-10T15:20:11;27.70;53.80
43987;DHT22;29650;47.378;8.300;2022-07-10T15:22:39;26.70;53.10
43987;DHT22;29650;47.378;8.300;2022-07-10T15:25:06;27.70;53.10
43987;DHT22;29650;47.378;8.300;2022-07-10T15:27:34;27.60;52.50
43987;DHT22;29650;47.378;8.300;2022-07-10T15:30:02;27.70;52.40
43987;DHT22;29650;47.378;8.300;2022-07-10T15:32:29;27.40;51.50
43987;DHT22;29650;47.378;8.300;2022-07-10T15:34:56;27.70;50.90
43987;DHT22;29650;47.378;8.300;2022-07-10T15:37:25;27.10;51.80
43987;DHT22;29650;47.378;8.300;2022-07-10T15:39:51;27.20;51.50